Time;durP1;ratioP1;P1;durP2;ratioP2;P2;SDS_P1;SDS_P2;PMS_P1;PMS_P2;Temp;Humidity;BMP_temperature;BMP_pressure;BME280_temperature;BME280_humidity;BME280_pressure;Samples;Min_cycle;Max_cycle;Signal;HPM_P1;HPM_P2
2022/08/23 00:01:42;;;;;;;0.80;0.80;;;15.10;99.90;;;;;;5213601;28;20031;-61
2022/08/23 00:04:20;;;;;;;0.90;0.90;;;15.00;99.90;;;;;;5180711;28;20414;-61
2022/08/23 00:06:53;;;;;;;0.73;0.73;;;15.00;99.90;;;;;;5191749;28;20043;-61
2022/08/23 00:09:26;;;;;;;1.10;0.85;;;14.90;99.90;;;;;;5197251;28;20041;-61
2022/08/23 00:12:09;;;;;;;0.63;0.63;;;14.90;99.90;;;;;;5197872;28;20041;-61
2022/08/23 00:14:48;;;;;;;1.10;1.00;;;14.80;99.90;;;;;;5209161;28;20051;-61
2022/08/23 00:17:20;;;;;;;1.00;0.90;;;14.80;99.90;;;;;;5205496;28;20060;-61
2022/08/23 00:19:53;;;;;;;0.95;0.80;;;14.80;99.90;;;;;;5202214;28;20028;-61
2022/08/23 00:22:26;;;;;;;0.80;0.80;;;14.80;99.90;;;;;;5205392;28;20398;-62
2022/08/23 00:25:00;;;;;;;0.80;0.80;;;14.80;99.90;;;;;;5182804;28;20035;-61
2022/08/23 00:27:32;;;;;;;1.00;0.90;;;14.80;99.90;;;;;;5235793;28;20038;-61
2022/08/23 00:30:11;;;;;;;0.50;0.50;;;14.80;99.90;;;;;;5237095;28;20343;-61
2022/08/23 00:32:42;;;;;;;0.93;0.90;;;14.80;99.90;;;;;;5208167;28;20024;-61
2022/08/23 00:35:17;;;;;;;0.95;0.93;;;14.80;99.90;;;;;;5205459;28;20308;-61
2022/08/23 00:37:51;;;;;;;1.10;0.80;;;14.70;99.90;;;;;;5200549;28;20029;-62
2022/08/23 00:40:25;;;;;;;0.98;0.93;;;14.80;99.90;;;;;;5216240;28;20054;-61
2022/08/23 00:49:11;;;;;;;0.50;0.50;;;14.80;99.90;;;;;;5228161;28;20021;-61
2022/08/23 00:52:32;;;;;;;0.60;0.60;;;14.80;99.90;;;;;;5218574;28;20017;-62
2022/08/23 00:55:06;;;;;;;0.60;0.60;;;14.80;99.90;;;;;;5176622;28;20026;-62
2022/08/23 00:57:42;;;;;;;0.95;0.52;;;14.80;99.90;;;;;;5190771;28;20045;-62
2022/08/23 01:00:18;;;;;;;0.60;0.60;;;14.80;99.90;;;;;;5187591;28;20350;-62
2022/08/23 01:02:55;;;;;;;0.85;0.82;;;14.90;99.90;;;;;;5201137;28;20128;-62
2022/08/23 01:05:36;;;;;;;0.80;0.65;;;14.80;99.90;;;;;;5196923;28;20053;-62
2022/08/23 01:08:08;;;;;;;0.60;0.60;;;14.90;99.90;;;;;;5160915;28;20208;-62
2022/08/23 01:10:47;;;;;;;0.73;0.73;;;14.80;99.90;;;;;;5144252;28;20170;-62
2022/08/23 01:13:32;;;;;;;0.85;0.85;;;14.90;99.90;;;;;;5171935;28;20041;-62
2022/08/23 01:16:18;;;;;;;0.77;0.77;;;14.90;99.90;;;;;;5192361;28;20365;-62
2022/08/23 01:18:53;;;;;;;0.75;0.75;;;14.90;99.90;;;;;;5192243;28;20419;-64
2022/08/23 01:21:52;;;;;;;0.65;0.65;;;14.90;99.90;;;;;;5180554;28;20345;-62
2022/08/23 01:24:35;;;;;;;0.52;0.52;;;15.00;99.90;;;;;;5178541;28;20029;-64
2022/08/23 01:27:11;;;;;;;0.73;0.73;;;14.90;99.90;;;;;;5146448;28;20034;-62
2022/08/23 01:29:42;;;;;;;0.73;0.73;;;14.90;99.90;;;;;;5203523;28;20047;-62
2022/08/23 01:32:15;;;;;;;0.80;0.80;;;14.90;99.90;;;;;;5214141;28;20030;-61
2022/08/23 01:34:52;;;;;;;0.32;0.32;;;14.90;99.90;;;;;;5201623;28;20047;-62
2022/08/23 01:37:23;;;;;;;0.80;0.80;;;14.90;99.90;;;;;;5199582;28;20041;-62
2022/08/23 01:39:57;;;;;;;0.70;0.70;;;14.90;99.90;;;;;;5220578;28;20021;-61
2022/08/23 01:42:28;;;;;;;1.40;0.80;;;14.90;99.90;;;;;;5184327;28;20039;-62
2022/08/23 01:45:05;;;;;;;0.60;0.60;;;14.90;99.90;;;;;;5209675;28;20190;-61
2022/08/23 01:47:39;;;;;;;0.60;0.60;;;15.00;99.90;;;;;;5221106;28;20325;-62
2022/08/23 01:50:28;;;;;;;;;;;14.90;99.90;;;;;;5220822;28;20032;-62
2022/08/23 01:53:01;;;;;;;3.22;0.88;;;14.90;99.90;;;;;;5178855;28;19901;-62
2022/08/23 01:55:40;;;;;;;0.40;0.40;;;14.90;99.90;;;;;;5203112;28;20027;-62
2022/08/23 01:58:11;;;;;;;1.05;1.02;;;15.00;99.90;;;;;;5206430;28;20123;-62
2022/08/23 02:00:47;;;;;;;0.65;0.65;;;15.00;99.90;;;;;;5225104;28;20043;-62
2022/08/23 02:03:21;;;;;;;0.50;0.50;;;15.00;99.90;;;;;;5183885;28;20245;-60
2022/08/23 02:05:55;;;;;;;0.93;0.93;;;15.00;99.90;;;;;;5207607;28;20055;-62
2022/08/23 02:11:24;;;;;;;0.75;0.75;;;15.00;99.90;;;;;;5200452;28;20223;-62
2022/08/23 02:13:59;;;;;;;0.93;0.93;;;14.90;99.90;;;;;;5214834;28;20043;-60
2022/08/23 02:16:39;;;;;;;1.05;1.05;;;14.90;99.90;;;;;;5182655;28;20025;-60
2022/08/23 02:19:12;;;;;;;0.63;0.63;;;14.90;99.90;;;;;;5220551;28;20019;-60
2022/08/23 02:21:47;;;;;;;1.33;1.23;;;14.90;99.90;;;;;;5227564;28;20035;-60
2022/08/23 02:24:23;;;;;;;0.63;0.63;;;14.80;99.90;;;;;;5201294;28;20065;-60
2022/08/23 02:27:06;;;;;;;1.65;1.30;;;14.80;99.90;;;;;;5204537;28;20020;-60
2022/08/23 02:29:38;;;;;;;0.77;0.73;;;14.80;99.90;;;;;;5228339;28;20024;-60
2022/08/23 02:32:13;;;;;;;0.70;0.65;;;14.90;99.90;;;;;;5216865;28;20328;-60
2022/08/23 02:34:48;;;;;;;0.85;0.85;;;14.80;99.90;;;;;;5224478;28;20230;-61
2022/08/23 02:37:22;;;;;;;0.73;0.73;;;14.80;99.90;;;;;;5202770;28;20047;-61
2022/08/23 02:39:56;;;;;;;0.80;0.80;;;14.80;99.90;;;;;;5199535;28;20032;-60
2022/08/23 02:42:27;;;;;;;1.40;1.30;;;14.80;99.90;;;;;;5199529;28;20040;-61
2022/08/23 02:45:01;;;;;;;1.48;1.33;;;14.80;99.90;;;;;;5215931;28;20064;-60
2022/08/23 02:47:32;;;;;;;0.80;0.80;;;14.80;99.90;;;;;;5218113;28;20310;-60
2022/08/23 02:50:05;;;;;;;1.08;0.85;;;14.90;99.90;;;;;;5189342;28;20037;-61
2022/08/23 02:52:39;;;;;;;1.10;1.03;;;14.80;99.90;;;;;;5183802;28;20229;-60
2022/08/23 02:55:13;;;;;;;1.10;1.05;;;14.80;99.90;;;;;;5216193;28;20032;-61
2022/08/23 02:57:48;;;;;;;1.00;1.00;;;14.80;99.90;;;;;;5200011;28;20025;-61
2022/08/23 03:00:20;;;;;;;0.95;0.95;;;14.80;99.90;;;;;;5215554;28;20028;-60
2022/08/23 03:02:52;;;;;;;1.25;1.15;;;14.80;99.90;;;;;;5216730;28;20311;-60
2022/08/23 03:05:23;;;;;;;1.30;1.20;;;14.80;99.90;;;;;;5189981;28;20254;-60
2022/08/23 03:07:59;;;;;;;0.88;0.85;;;14.90;99.90;;;;;;5202565;28;20033;-60
2022/08/23 03:10:33;;;;;;;1.20;1.10;;;14.90;99.90;;;;;;5199537;28;20037;-60
2022/08/23 03:13:04;;;;;;;1.40;1.27;;;14.90;99.90;;;;;;5198963;28;20045;-61
2022/08/23 03:15:36;;;;;;;1.20;1.05;;;14.90;99.90;;;;;;5230866;28;20281;-61
2022/08/23 03:18:09;;;;;;;1.98;1.40;;;14.90;99.90;;;;;;5237350;28;20038;-61
2022/08/23 03:20:41;;;;;;;1.35;0.98;;;14.90;99.90;;;;;;5220345;28;20027;-61
2022/08/23 03:23:12;;;;;;;1.50;1.40;;;14.90;99.90;;;;;;5211825;28;20029;-60
2022/08/23 03:25:46;;;;;;;2.40;1.67;;;14.80;99.90;;;;;;5217856;28;20044;-61
2022/08/23 03:28:17;;;;;;;1.30;1.20;;;14.80;99.90;;;;;;5203653;28;20025;-62
2022/08/23 03:30:54;;;;;;;1.40;1.30;;;14.90;99.90;;;;;;5206464;28;20038;-62
2022/08/23 03:33:28;;;;;;;1.48;1.38;;;14.90;99.90;;;;;;5202439;28;20057;-60
2022/08/23 03:36:01;;;;;;;2.63;1.20;;;14.90;99.90;;;;;;5233058;28;20028;-62
2022/08/23 03:38:32;;;;;;;0.90;0.90;;;14.90;99.90;;;;;;5237731;28;20237;-62
2022/08/23 03:41:07;;;;;;;2.97;1.55;;;14.90;99.90;;;;;;5219560;28;20020;-60
2022/08/23 03:43:43;;;;;;;1.83;1.27;;;14.90;99.90;;;;;;5193965;28;20028;-60
2022/08/23 03:46:21;;;;;;;0.85;0.85;;;14.90;99.90;;;;;;5193008;28;20376;-60
2022/08/23 03:48:58;;;;;;;1.00;0.98;;;14.90;99.90;;;;;;5218829;28;20028;-60
2022/08/23 03:51:35;;;;;;;1.23;1.15;;;14.90;99.90;;;;;;5219335;28;20020;-59
2022/08/23 03:54:09;;;;;;;1.15;1.05;;;14.90;99.90;;;;;;5213702;28;20035;-59
2022/08/23 03:57:01;;;;;;;;;;;14.90;99.90;;;;;;5230149;28;20310;-60
2022/08/23 03:59:36;;;;;;;3.42;1.63;;;14.90;99.90;;;;;;5237466;28;20083;-60
2022/08/23 04:02:13;;;;;;;1.27;1.17;;;14.90;99.90;;;;;;5203108;28;20039;-59
2022/08/23 04:04:44;;;;;;;1.40;1.30;;;14.90;99.90;;;;;;5167883;28;20256;-59
2022/08/23 04:07:25;;;;;;;2.17;1.38;;;14.90;99.90;;;;;;5172198;28;20025;-61
2022/08/23 04:09:57;;;;;;;1.27;1.17;;;14.90;99.90;;;;;;5201129;28;20036;-61
2022/08/23 04:12:28;;;;;;;1.27;1.17;;;14.90;99.90;;;;;;5195840;28;20032;-60
2022/08/23 04:15:05;;;;;;;1.20;1.10;;;15.00;99.90;;;;;;5198528;28;20055;-60
2022/08/23 04:17:36;;;;;;;1.30;1.20;;;15.00;99.90;;;;;;5197479;28;20033;-60
2022/08/23 04:20:09;;;;;;;1.33;1.20;;;15.00;99.90;;;;;;5226182;28;20020;-62
2022/08/23 04:22:42;;;;;;;1.05;0.98;;;15.00;99.90;;;;;;5229411;28;20258;-60
2022/08/23 04:25:15;;;;;;;1.50;1.40;;;15.00;99.90;;;;;;5204218;28;20270;-61
2022/08/23 04:27:50;;;;;;;1.65;1.55;;;15.00;99.90;;;;;;5237016;28;20016;-61
2022/08/23 04:30:30;;;;;;;1.27;1.17;;;15.00;99.90;;;;;;5198395;28;20282;-59
2022/08/23 04:33:01;;;;;;;1.98;1.60;;;15.00;99.90;;;;;;5237352;28;20199;-60
2022/08/23 04:35:35;;;;;;;1.27;1.17;;;15.00;99.90;;;;;;5206925;28;20028;-59
2022/08/23 04:38:06;;;;;;;1.40;1.30;;;15.00;99.90;;;;;;5198191;28;20108;-59
2022/08/23 04:43:27;;;;;;;1.90;1.60;;;15.10;99.90;;;;;;5201201;28;20620;-60
2022/08/23 04:46:00;;;;;;;2.28;1.73;;;15.10;99.90;;;;;;5216432;28;20047;-60
2022/08/23 04:48:34;;;;;;;3.08;1.30;;;15.10;99.90;;;;;;5198001;28;20025;-60
2022/08/23 04:51:05;;;;;;;1.58;1.40;;;15.10;99.90;;;;;;5182618;28;20039;-61
2022/08/23 04:53:39;;;;;;;2.00;1.77;;;15.10;99.90;;;;;;5228295;28;20036;-60
2022/08/23 04:56:11;;;;;;;1.70;1.60;;;15.10;99.90;;;;;;5218651;28;20424;-60
2022/08/23 04:58:46;;;;;;;1.50;1.40;;;15.10;99.90;;;;;;5198714;28;20025;-59
2022/08/23 05:01:23;;;;;;;;;;;15.10;99.90;;;;;;5209795;28;20202;-58
2022/08/23 05:03:55;;;;;;;1.52;1.42;;;15.10;99.90;;;;;;5198642;28;19907;-59
2022/08/23 05:06:27;;;;;;;2.20;1.77;;;15.10;99.90;;;;;;5204781;28;20205;-60
2022/08/23 05:09:03;;;;;;;2.00;1.80;;;15.00;99.90;;;;;;5217081;28;20025;-59
2022/08/23 05:11:34;;;;;;;1.67;1.58;;;15.10;99.90;;;;;;5215974;28;20028;-61
2022/08/23 05:14:10;;;;;;;2.47;2.22;;;15.10;99.90;;;;;;5215097;28;20037;-60
2022/08/23 05:16:42;;;;;;;2.30;2.00;;;15.10;99.90;;;;;;5200332;28;20039;-59
2022/08/23 05:19:13;;;;;;;2.10;1.90;;;15.10;99.90;;;;;;5215457;28;20024;-59
2022/08/23 05:21:49;;;;;;;2.25;1.90;;;15.20;99.90;;;;;;5208996;28;20032;-61
2022/08/23 05:24:23;;;;;;;2.67;2.10;;;15.10;99.90;;;;;;5215328;28;20030;-59
2022/08/23 05:26:56;;;;;;;2.90;2.47;;;15.20;99.90;;;;;;5181772;28;20025;-60
2022/08/23 05:29:27;;;;;;;2.60;2.08;;;15.20;99.90;;;;;;5213432;28;20233;-60
2022/08/23 05:31:59;;;;;;;1.60;1.50;;;15.20;99.90;;;;;;5197131;28;20029;-60
2022/08/23 05:34:34;;;;;;;3.00;1.90;;;15.20;99.90;;;;;;5214901;28;20033;-59
2022/08/23 05:37:05;;;;;;;2.40;2.20;;;15.20;99.90;;;;;;5236614;28;20032;-59
2022/08/23 05:39:39;;;;;;;2.05;1.85;;;15.20;99.90;;;;;;5255490;28;20024;-62
2022/08/23 05:42:18;;;;;;;2.33;1.65;;;15.20;99.90;;;;;;5237504;28;20029;-60
2022/08/23 05:44:49;;;;;;;1.92;1.80;;;15.20;99.90;;;;;;5237185;28;20031;-60
2022/08/23 05:47:20;;;;;;;2.00;1.80;;;15.20;99.90;;;;;;5254982;28;20017;-60
2022/08/23 05:49:51;;;;;;;1.80;1.52;;;15.30;99.90;;;;;;5237125;28;20028;-60
2022/08/23 05:52:23;;;;;;;2.28;2.03;;;15.30;99.90;;;;;;5257545;28;20032;-59
2022/08/23 05:54:54;;;;;;;1.75;1.65;;;15.30;99.90;;;;;;5241371;28;20092;-59
2022/08/23 05:57:25;;;;;;;2.10;1.60;;;15.30;99.90;;;;;;5240845;28;20047;-60
2022/08/23 05:59:57;;;;;;;1.50;1.40;;;15.30;99.90;;;;;;5240836;28;20027;-61
2022/08/23 06:02:28;;;;;;;1.63;1.52;;;15.30;99.90;;;;;;5223142;28;20032;-60
2022/08/23 06:05:03;;;;;;;1.48;1.38;;;15.30;99.90;;;;;;5230435;28;20052;-59
2022/08/23 06:07:37;;;;;;;;;;;15.40;99.90;;;;;;5240643;28;20030;-59
2022/08/23 06:10:11;;;;;;;1.70;1.60;;;15.40;99.90;;;;;;5240356;28;19914;-58
2022/08/23 06:12:46;;;;;;;1.92;1.83;;;15.40;99.90;;;;;;5223841;28;20036;-60
2022/08/23 06:15:17;;;;;;;1.75;1.65;;;15.40;99.90;;;;;;5258977;28;20024;-60
2022/08/23 06:17:48;;;;;;;2.05;1.85;;;15.40;99.90;;;;;;5240917;28;20090;-59
2022/08/23 06:20:22;;;;;;;2.08;1.38;;;15.50;99.90;;;;;;5258617;28;20201;-58
2022/08/23 06:22:53;;;;;;;1.90;1.70;;;15.50;99.90;;;;;;5224232;28;20104;-60
2022/08/23 06:25:25;;;;;;;1.75;1.52;;;15.50;99.90;;;;;;5223450;28;20257;-60
2022/08/23 06:27:57;;;;;;;1.95;1.73;;;15.50;99.90;;;;;;5207269;28;20225;-59
2022/08/23 06:30:31;;;;;;;6.38;1.90;;;15.50;99.90;;;;;;5258493;28;20189;-60
2022/08/23 06:33:05;;;;;;;2.05;1.85;;;15.60;99.90;;;;;;5240921;28;20037;-60
2022/08/23 06:35:39;;;;;;;2.75;1.98;;;15.60;99.90;;;;;;5216016;28;20034;-59
2022/08/23 06:38:13;;;;;;;1.90;1.80;;;15.60;99.90;;;;;;5202402;28;20031;-61
2022/08/23 06:40:44;;;;;;;1.65;1.55;;;15.70;99.90;;;;;;5184174;28;20033;-60
2022/08/23 06:43:17;;;;;;;1.92;1.70;;;15.70;99.90;;;;;;5199812;28;20207;-59
2022/08/23 06:45:48;;;;;;;2.42;1.67;;;15.80;99.90;;;;;;5198812;28;20172;-61
2022/08/23 06:48:29;;;;;;;1.85;1.75;;;15.80;99.90;;;;;;5183490;28;20041;-59
2022/08/23 06:51:22;;;;;;;1.95;1.75;;;15.80;99.90;;;;;;5199337;28;20031;-60
2022/08/23 06:53:58;;;;;;;1.77;1.67;;;15.80;99.90;;;;;;5203904;28;20034;-60
2022/08/23 06:56:32;;;;;;;2.08;1.60;;;15.80;99.90;;;;;;5217249;28;20021;-59
2022/08/23 06:59:07;;;;;;;1.60;1.50;;;15.90;99.90;;;;;;5220615;28;20294;-59
2022/08/23 07:02:03;;;;;;;1.73;1.60;;;15.90;99.90;;;;;;5195117;28;20043;-60
2022/08/23 07:04:38;;;;;;;1.17;1.17;;;15.90;99.90;;;;;;5188704;28;20051;-59
2022/08/23 07:07:10;;;;;;;1.40;1.30;;;15.90;99.90;;;;;;5183418;28;20032;-59
2022/08/23 07:09:41;;;;;;;1.10;1.10;;;15.90;99.90;;;;;;5216337;28;20108;-60
2022/08/23 07:12:15;;;;;;;1.33;1.23;;;15.90;99.90;;;;;;5200708;28;20219;-58
2022/08/23 07:14:50;;;;;;;1.35;1.20;;;16.00;99.90;;;;;;5198757;28;20045;-61
2022/08/23 07:17:21;;;;;;;1.40;1.30;;;16.00;99.90;;;;;;5186795;28;20032;-59
2022/08/23 07:19:52;;;;;;;1.40;1.30;;;16.00;99.90;;;;;;5216162;28;20032;-60
2022/08/23 07:22:25;;;;;;;1.70;1.20;;;16.10;99.90;;;;;;5238030;28;20039;-60
2022/08/23 07:24:58;;;;;;;1.20;1.10;;;16.10;99.90;;;;;;5202846;28;20426;-59
2022/08/23 07:27:32;;;;;;;1.10;1.10;;;16.20;99.90;;;;;;5204213;28;20032;-60
2022/08/23 07:30:09;;;;;;;1.15;1.05;;;16.30;99.90;;;;;;5237299;28;20024;-62
2022/08/23 07:32:43;;;;;;;1.20;1.20;;;16.40;99.90;;;;;;5190111;28;20677;-60
2022/08/23 07:35:14;;;;;;;1.30;1.20;;;16.50;99.90;;;;;;5177492;28;20039;-60
2022/08/23 07:37:51;;;;;;;1.20;1.10;;;16.70;99.90;;;;;;5178600;28;20230;-61
2022/08/23 07:40:27;;;;;;;1.30;1.20;;;16.90;99.90;;;;;;5164096;28;20025;-61
2022/08/23 07:42:58;;;;;;;1.20;1.10;;;17.00;99.90;;;;;;5186859;28;20039;-60
2022/08/23 07:45:35;;;;;;;1.20;1.08;;;17.20;99.90;;;;;;5211258;28;20032;-60
2022/08/23 07:48:11;;;;;;;0.95;0.95;;;17.50;99.90;;;;;;5208511;28;20302;-60
2022/08/23 07:50:54;;;;;;;1.00;1.00;;;17.80;99.90;;;;;;5216189;28;20206;-61
2022/08/23 07:53:26;;;;;;;0.75;0.75;;;18.00;99.90;;;;;;5219046;28;20198;-61
2022/08/23 07:56:07;;;;;;;0.65;0.65;;;17.90;99.90;;;;;;5219123;28;20301;-60
2022/08/23 07:58:40;;;;;;;0.63;0.63;;;17.90;99.90;;;;;;5236878;28;20080;-61
2022/08/23 08:01:23;;;;;;;1.23;0.80;;;17.90;99.90;;;;;;5204169;28;20028;-61
2022/08/23 08:03:59;;;;;;;0.85;0.85;;;17.90;99.90;;;;;;5215614;28;20278;-60
2022/08/23 08:06:46;;;;;;;1.52;0.73;;;18.00;99.90;;;;;;5204875;28;20041;-60
2022/08/23 08:09:21;;;;;;;0.70;0.70;;;18.10;99.90;;;;;;5189496;28;20024;-61
2022/08/23 08:11:58;;;;;;;0.70;0.70;;;18.20;99.90;;;;;;5200838;28;20046;-60
2022/08/23 08:14:34;;;;;;;0.73;0.73;;;18.40;99.90;;;;;;5225189;28;20596;-60
2022/08/23 08:17:06;;;;;;;0.50;0.50;;;18.40;99.90;;;;;;5206797;28;20040;-60
2022/08/23 08:19:42;;;;;;;0.60;0.60;;;18.40;99.90;;;;;;5187489;28;20029;-60
2022/08/23 08:22:13;;;;;;;0.60;0.60;;;18.30;99.90;;;;;;5182389;28;20043;-61
2022/08/23 08:24:47;;;;;;;0.60;0.60;;;18.20;99.90;;;;;;5185246;28;20261;-60
2022/08/23 08:27:19;;;;;;;0.70;0.70;;;18.50;99.90;;;;;;5237041;28;20329;-61
2022/08/23 08:29:51;;;;;;;0.80;0.80;;;18.40;99.90;;;;;;5218268;28;20042;-60
2022/08/23 08:32:23;;;;;;;0.55;0.55;;;18.30;99.90;;;;;;5219580;28;20344;-61
2022/08/23 08:34:58;;;;;;;0.60;0.60;;;18.40;99.90;;;;;;5181680;28;20202;-59
2022/08/23 08:37:31;;;;;;;0.63;0.63;;;18.40;99.90;;;;;;5221217;28;20017;-61
2022/08/23 08:40:04;;;;;;;0.70;0.70;;;18.50;99.90;;;;;;5206578;28;20214;-62
2022/08/23 08:42:53;;;;;;;0.80;0.80;;;18.30;99.90;;;;;;5192195;28;20342;-63
2022/08/23 08:45:33;;;;;;;0.98;0.98;;;18.20;99.90;;;;;;5194251;28;20033;-60
2022/08/23 08:48:12;;;;;;;0.82;0.80;;;17.90;99.90;;;;;;5230143;28;20044;-60
2022/08/23 08:50:51;;;;;;;0.70;0.70;;;17.70;99.90;;;;;;5236409;28;20042;-60
2022/08/23 08:53:40;;;;;;;0.70;0.70;;;17.70;99.90;;;;;;5237583;28;20025;-59
2022/08/23 08:56:24;;;;;;;1.15;0.80;;;17.70;99.90;;;;;;5236096;28;20028;-60
2022/08/23 08:59:08;;;;;;;0.57;0.57;;;17.90;99.90;;;;;;5231896;28;20012;-60
2022/08/23 09:01:40;;;;;;;0.80;0.80;;;17.80;99.90;;;;;;5202459;28;20039;-61
2022/08/23 09:04:15;;;;;;;0.70;0.70;;;17.70;99.90;;;;;;5188161;28;20029;-61
2022/08/23 09:06:52;;;;;;;;;;;17.60;99.90;;;;;;5199553;28;20025;-61
2022/08/23 09:09:48;;;;;;;0.93;0.93;;;17.40;99.90;;;;;;5197936;28;19901;-61
2022/08/23 09:12:24;;;;;;;0.93;0.93;;;17.40;99.90;;;;;;5221445;28;20348;-60
2022/08/23 09:15:20;;;;;;;1.13;1.10;;;17.40;99.90;;;;;;5195255;28;20041;-62
2022/08/23 09:17:55;;;;;;;0.82;0.82;;;17.30;99.90;;;;;;5183605;28;20356;-61
2022/08/23 09:20:30;;;;;;;1.30;1.20;;;17.40;99.90;;;;;;5214859;28;20039;-61
2022/08/23 09:23:16;;;;;;;1.35;1.20;;;17.60;99.90;;;;;;5215088;28;20282;-61
2022/08/23 09:26:24;;;;;;;1.35;1.25;;;17.70;99.90;;;;;;5215431;28;20017;-60
2022/08/23 09:29:02;;;;;;;3.88;1.50;;;17.80;99.90;;;;;;5185256;28;20108;-60
2022/08/23 09:32:01;;;;;;;1.10;1.10;;;17.50;99.90;;;;;;5232841;28;20028;-60
2022/08/23 09:34:33;;;;;;;2.58;1.45;;;17.40;99.90;;;;;;5193582;28;20041;-61
2022/08/23 09:37:18;;;;;;;1.50;1.40;;;17.10;99.90;;;;;;5164795;28;20048;-60
2022/08/23 09:40:15;;;;;;;1.83;1.48;;;17.00;99.90;;;;;;5205835;28;20119;-60
2022/08/23 09:43:05;;;;;;;2.30;1.50;;;16.90;99.90;;;;;;5201633;28;20048;-59
2022/08/23 09:45:51;;;;;;;1.17;1.17;;;16.80;99.90;;;;;;5218142;28;20035;-61
2022/08/23 09:48:41;;;;;;;1.45;1.35;;;17.00;99.90;;;;;;5219883;28;20032;-61
2022/08/23 09:51:31;;;;;;;1.45;1.35;;;16.90;99.90;;;;;;5202028;28;20028;-60
2022/08/23 09:54:25;;;;;;;1.55;1.45;;;16.80;99.90;;;;;;5221164;28;20036;-60
2022/08/23 09:57:05;;;;;;;1.65;1.55;;;16.70;99.90;;;;;;5239310;28;20016;-60
2022/08/23 09:59:45;;;;;;;1.63;1.40;;;16.80;99.90;;;;;;5239559;28;20032;-59
2022/08/23 10:02:33;;;;;;;2.40;1.13;;;16.90;99.90;;;;;;5190998;28;20033;-59
2022/08/23 10:05:26;;;;;;;1.30;1.20;;;16.70;99.90;;;;;;5172136;28;20376;-59
2022/08/23 10:08:00;;;;;;;1.60;1.50;;;16.60;99.90;;;;;;5201403;28;20270;-60
2022/08/23 10:10:50;;;;;;;1.70;1.60;;;16.60;99.90;;;;;;5191248;28;20033;-59
2022/08/23 10:13:22;;;;;;;2.38;1.52;;;16.70;99.90;;;;;;5190840;28;21006;-60
2022/08/23 10:16:14;;;;;;;1.58;1.48;;;16.90;99.90;;;;;;5222156;28;20371;-60
2022/08/23 10:19:07;;;;;;;1.88;1.45;;;16.90;99.90;;;;;;5209265;28;20046;-60
2022/08/23 10:21:45;;;;;;;1.45;1.35;;;17.00;99.90;;;;;;5218216;28;20023;-62
2022/08/23 10:24:38;;;;;;;1.65;1.20;;;17.10;99.90;;;;;;5239268;28;20521;-60
2022/08/23 10:30:34;;;;;;;1.42;1.33;;;17.10;99.90;;;;;;5221293;28;20391;-62
2022/08/23 10:33:39;;;;;;;1.63;1.35;;;17.40;99.90;;;;;;5222217;28;20024;-59
2022/08/23 10:36:23;;;;;;;2.38;1.42;;;17.40;99.90;;;;;;5118835;28;20064;-61
2022/08/23 10:39:02;;;;;;;1.25;1.15;;;17.50;99.90;;;;;;5128643;28;20036;-60
2022/08/23 10:41:42;;;;;;;1.40;1.30;;;17.60;99.90;;;;;;5122502;28;20316;-61
2022/08/23 10:44:24;;;;;;;1.48;1.35;;;17.60;99.90;;;;;;5097573;29;20034;-60
2022/08/23 10:47:26;;;;;;;1.40;1.10;;;17.70;99.90;;;;;;5115284;29;20043;-59
2022/08/23 10:50:05;;;;;;;2.72;1.15;;;17.70;99.90;;;;;;5114673;28;20041;-60
2022/08/23 10:52:49;;;;;;;1.60;1.50;;;17.90;99.90;;;;;;5135181;28;20034;-61
2022/08/23 10:58:51;;;;;;;1.65;1.40;;;18.20;99.90;;;;;;5118653;28;20212;-60
2022/08/23 11:01:48;;;;;;;1.10;1.00;;;18.40;99.90;;;;;;5137660;28;20037;-62
2022/08/23 11:04:42;;;;;;;1.55;1.45;;;18.40;99.90;;;;;;5109318;28;20070;-61
2022/08/23 11:07:39;;;;;;;1.73;1.40;;;18.50;99.90;;;;;;5148388;28;20038;-62
2022/08/23 11:10:44;;;;;;;1.20;1.10;;;18.60;99.90;;;;;;5116487;28;20084;-59
2022/08/23 11:13:19;;;;;;;1.13;1.13;;;18.50;99.90;;;;;;5172919;28;20055;-60
2022/08/23 11:16:14;;;;;;;1.05;1.05;;;18.50;99.90;;;;;;5196016;28;20029;-60
2022/08/23 11:18:47;;;;;;;1.35;1.23;;;18.60;99.90;;;;;;5197655;28;20032;-59
2022/08/23 11:21:30;;;;;;;1.20;1.20;;;18.60;99.90;;;;;;5209633;28;20257;-60
2022/08/23 11:24:01;;;;;;;1.30;1.20;;;18.60;99.90;;;;;;5203549;28;20313;-60
2022/08/23 11:26:41;;;;;;;1.90;1.10;;;18.80;99.90;;;;;;5194831;28;20021;-61
2022/08/23 11:29:22;;;;;;;1.27;1.17;;;18.60;99.90;;;;;;5202375;28;20017;-59
2022/08/23 11:32:10;;;;;;;1.10;1.10;;;18.80;99.90;;;;;;5182449;28;20047;-61
2022/08/23 11:35:10;;;;;;;1.00;1.00;;;18.80;99.90;;;;;;5180414;28;20039;-60
2022/08/23 11:38:04;;;;;;;1.20;1.20;;;18.90;99.90;;;;;;5219776;28;20348;-60
2022/08/23 11:41:05;;;;;;;1.40;1.30;;;19.00;99.90;;;;;;5233805;28;20036;-61
2022/08/23 11:43:39;;;;;;;1.10;1.10;;;18.70;99.90;;;;;;5213567;28;20029;-59
2022/08/23 11:46:20;;;;;;;1.88;1.05;;;18.80;99.90;;;;;;5203316;28;20035;-61
2022/08/23 11:49:10;;;;;;;1.15;1.10;;;19.20;99.90;;;;;;5202521;28;20191;-60
2022/08/23 11:52:19;;;;;;;0.90;0.90;;;19.00;99.90;;;;;;5204683;28;20195;-60
2022/08/23 11:55:13;;;;;;;1.00;1.00;;;18.80;99.90;;;;;;5214504;28;20029;-60
2022/08/23 11:58:09;;;;;;;1.60;1.50;;;19.20;99.90;;;;;;5220663;28;20334;-60
2022/08/23 12:01:07;;;;;;;1.10;1.10;;;19.10;99.90;;;;;;5219237;28;20039;-60
2022/08/23 12:04:00;;;;;;;1.27;1.20;;;18.90;99.90;;;;;;5186533;28;20028;-62
2022/08/23 12:06:48;;;;;;;1.13;1.08;;;19.20;99.90;;;;;;5198352;28;20055;-60
2022/08/23 12:09:19;;;;;;;1.25;1.15;;;19.00;99.90;;;;;;5213946;28;20034;-62
2022/08/23 12:11:56;;;;;;;1.13;1.08;;;18.90;99.90;;;;;;5217319;28;20153;-59
2022/08/23 12:14:30;;;;;;;1.17;1.05;;;19.10;99.90;;;;;;5199479;28;20361;-60
2022/08/23 12:17:27;;;;;;;1.20;1.20;;;19.20;99.90;;;;;;5226984;28;20040;-60
2022/08/23 12:20:14;;;;;;;1.38;1.27;;;19.20;99.90;;;;;;5192904;28;20023;-60
2022/08/23 12:22:57;;;;;;;0.98;0.98;;;19.40;99.90;;;;;;5198924;28;20021;-60
2022/08/23 12:25:30;;;;;;;1.25;1.20;;;19.50;99.90;;;;;;5210536;28;20047;-60
2022/08/23 12:28:11;;;;;;;1.13;1.10;;;19.20;99.90;;;;;;5202590;28;20225;-60
2022/08/23 12:31:13;;;;;;;1.90;1.20;;;19.20;99.90;;;;;;5237413;28;20028;-62
2022/08/23 12:34:36;;;;;;;1.20;1.10;;;19.10;99.90;;;;;;5204744;28;20028;-61
2022/08/23 12:37:24;;;;;;;1.00;1.00;;;18.90;99.90;;;;;;5136244;28;20242;-62
2022/08/23 12:40:02;;;;;;;1.23;1.13;;;18.90;99.90;;;;;;5120369;28;20049;-60
2022/08/23 12:42:40;;;;;;;1.30;1.20;;;19.10;99.90;;;;;;5151631;28;20040;-59
2022/08/23 12:45:17;;;;;;;1.13;1.02;;;19.10;99.90;;;;;;5154820;28;20117;-61
2022/08/23 12:48:01;;;;;;;1.30;1.27;;;19.10;99.90;;;;;;5119836;28;20068;-59
2022/08/23 12:50:40;;;;;;;1.45;1.35;;;19.40;99.90;;;;;;5152231;28;20199;-59
2022/08/23 12:53:14;;;;;;;1.45;1.35;;;19.20;99.90;;;;;;5151412;28;20041;-59
2022/08/23 12:55:50;;;;;;;2.03;1.10;;;19.30;99.90;;;;;;5143262;28;20030;-59
2022/08/23 12:58:28;;;;;;;1.13;1.10;;;19.30;99.90;;;;;;5131851;28;20034;-60
2022/08/23 13:01:16;;;;;;;1.10;1.10;;;19.50;99.90;;;;;;5121338;28;20030;-60
2022/08/23 13:03:55;;;;;;;1.00;1.00;;;19.50;99.90;;;;;;5161051;28;20403;-61
2022/08/23 13:06:31;;;;;;;1.08;0.98;;;19.50;99.90;;;;;;5165428;28;20273;-61
2022/08/23 13:09:21;;;;;;;1.08;1.00;;;19.60;99.90;;;;;;5159666;28;20041;-60
2022/08/23 13:12:01;;;;;;;1.00;1.00;;;19.70;99.90;;;;;;5129823;28;20037;-60
2022/08/23 13:14:51;;;;;;;1.20;1.10;;;19.80;99.90;;;;;;5164866;28;20114;-59
2022/08/23 13:17:25;;;;;;;1.17;1.15;;;20.20;99.90;;;;;;5199416;28;20031;-62
2022/08/23 13:20:09;;;;;;;0.73;0.73;;;20.30;99.90;;;;;;5199105;28;20025;-61
2022/08/23 13:23:05;;;;;;;0.68;0.68;;;21.00;99.90;;;;;;5212871;28;20047;-59
2022/08/23 13:25:40;;;;;;;0.95;0.88;;;21.40;99.90;;;;;;5222416;28;20031;-62
2022/08/23 13:28:28;;;;;;;0.90;0.90;;;21.00;99.90;;;;;;5218889;28;20029;-62
2022/08/23 13:31:08;;;;;;;0.88;0.77;;;20.50;99.90;;;;;;5185914;28;20032;-61
2022/08/23 13:33:40;;;;;;;0.82;0.82;;;20.10;99.90;;;;;;5227656;28;20041;-59
2022/08/23 13:36:18;;;;;;;1.00;1.00;;;20.00;99.90;;;;;;5219402;28;20045;-59
2022/08/23 13:38:49;;;;;;;1.45;1.08;;;20.10;99.90;;;;;;5184379;28;20342;-61
2022/08/23 13:41:45;;;;;;;1.25;0.90;;;20.20;99.90;;;;;;5219021;28;20021;-60
2022/08/23 13:44:21;;;;;;;;;;;20.50;99.90;;;;;;5221766;28;20027;-60
2022/08/23 13:46:53;;;;;;;1.70;1.00;;;20.40;99.90;;;;;;5204957;28;20200;-59
2022/08/23 13:49:27;;;;;;;0.77;0.77;;;20.10;99.90;;;;;;5204889;28;20058;-60
2022/08/23 13:52:01;;;;;;;1.00;1.00;;;20.40;99.90;;;;;;5218989;28;20028;-60
2022/08/23 13:54:37;;;;;;;1.00;1.00;;;20.40;99.90;;;;;;5207303;28;20324;-60
2022/08/23 13:57:15;;;;;;;1.20;1.10;;;20.40;99.90;;;;;;5203142;28;20035;-59
2022/08/23 13:59:54;;;;;;;1.05;1.05;;;20.40;99.90;;;;;;5232977;28;20317;-59
2022/08/23 14:02:25;;;;;;;0.85;0.85;;;20.70;99.90;;;;;;5205762;28;20050;-60
2022/08/23 14:04:59;;;;;;;0.63;0.63;;;20.60;99.90;;;;;;5206686;28;20075;-60